LQBKLZSL

Guest
Details From LQBK - BANJA LUKA
To LZSL - SLIAC
Flight Number -
Tags generated
Created
Modified
Stats Distance 240 nm / 445 km
Max Altitude 29,700 ft / 9,053 m
Waypoints 5
Social Downloads 0
Likes 0
Share VATSIM

Download

Looking for another format? Having issues loading an existing format? Contact us
Advertisement - Login to hide

Notes

Basic altitude profile: - Ascent Rate: 2500ft/min - Ascent Speed: 250kts - Cruise Altitude: 290ft - Cruise Speed: 420kts - Descent Rate: 1500ft/min - Descent Speed: 250kts Options: - Use NATs: yes - Use PACOTS: yes - Use low airways: yes - Use high airways: yes

Route

LQBK SOGMO UM986 SVR GITAS LZSL

ID Type Via Altitude Latitude Longitude Leg Dist Tot Dist Heading (true) Name
O LQBK APT - 0 ft / 0 m 44.94157˚ 17.29708˚ - 0 nm - BANJA LUKA
SOGMO FIX - 29,700 ft / 9,053 m 46.60953˚ 17.68335˚ 101 nm 101 nm 9° / 9° -
SVR VOR UM986 (AWY-HI) 23,900 ft / 7,285 m 46.82812˚ 18.11779˚ 22 nm 123 nm 54° / 54° SAGVAR VOR-DME
GITAS FIX - 21,900 ft / 6,675 m 47.05479˚ 18.17415˚ 13 nm 137 nm 10° / 10° -
O LZSL APT - 0 ft / 0 m 48.63784˚ 19.13411˚ 102 nm 240 nm 22° / 23° SLIAC

Altitude Profile

Advertisement - Login to hide

Weather


0- 5 10 15 20 25 30 35+ Temperature / ° C

Clouds and Precipitation
Forecast for 2017-12-16 18:00 UTC. Updated 2 hours ago

Ground ~20,000 ft ~40,000 ft Winds

LQBK

Details ICAO LQBK (BNX)
Name BANJA LUKA
Region Bosnia and Herzegovinia
Timezone Europe/Sarajevo (UTC+1.0)
Stats Elevation 400 ft / 122 m (AMSL)
Location 44.941573° 17.297081°
Runways 1
Magnetic Variation 4.133° E

METAR

LQBK 161830Z VRB02KT CAVOK 01/01 Q1012 NOSIG

Decode

TAF

Not found

Departure Runways

ID Width Length Bearing (true) Bearing (mag) Surface Threshold Offset Overrun Length
17 148 ft / 45 m 8,174 ft / 2,491 m 169.53° 165.40° Concrete 0 ft / 0 m 0 ft / 0 m
35 148 ft / 45 m 8,174 ft / 2,491 m 349.54° 345.41° Concrete 0 ft / 0 m 0 ft / 0 m

LZSL

Details ICAO LZSL (SLD)
Name SLIAC
Region Slovakia
Timezone Europe/Bratislava (UTC+1.0)
Stats Elevation 1,043 ft / 318 m (AMSL)
Location 48.637839° 19.134108°
Runways 1
Magnetic Variation 4.875° E

METAR

LZSL 161830Z 00000KT CAVOK M04/M06 Q1010

Decode

TAF

Not found

Destination Runways

ID Width Length Bearing (true) Bearing (mag) Surface Threshold Offset Overrun Length
18 197 ft / 60 m 7,657 ft / 2,334 m 181.94° 177.07° Concrete 0 ft / 0 m 180 ft / 55 m
36 197 ft / 60 m 7,657 ft / 2,334 m 1.93° 357.06° Concrete 0 ft / 0 m 65 ft / 20 m

Approach Navaids

Runway Type Ident Frequency Range Bearing (true) Bearing (mag) Slope Elevation
36 Localiser FS 108.70 MHz 18 nm / 33 km 1.94° 357.07° - 1,042 ft / 318 m (AMSL)
36 Glidescope FS 108.70 MHz 10 nm / 19 km 1.94° 357.06° 3.50° 1,042 ft / 318 m (AMSL)
36 DME FS 108.70 MHz 18 nm / 33 km - - - 1,047 ft / 319 m (AMSL)